Alburg, Vermont
Current Conditions -  °F | °C
As of 1:35 PM on Friday 21 Nov 2014 (Local Time) from KFSO Reporting Station
Scattered Clouds Scattered Clouds  
Wind Chill: 15°   Ceiling: Unl
Heat Index: 24°   Visibility: 10mi
Dew Point:   Wind: 8mph
Humidity: 53%   Direction: 270°W
Pressure: 30.2"   Gusts: 18mph
Location:  44.9685°N, 73.281°W
Report Text: KFSO 211735Z AUTO 27007G16KT 10SM SCT032 M04/M13 A3020 RMK AO2 T10451128
Loading
Personal Weather Stations






























Interactive Weather Map New forecast layout! Learn more

10-Day Weather Forecast

Advertisements
Track Severe Weather on mobile